KFKN/FKN METAR and TAF weather

Enter ICAO airport designator
Station Type Date Time Source
KFKN METAR 2022/05/26 05:35 UTC NOAA

KFKN 260535Z AUTO 00000KT 5SM BR OVC004 15/15 A3025 RMK AO2 T01500146


Station Type Date Time Source
KFKN Decoded METAR 2022/05/26 05:35 UTC NOAA

Franklin / J B Rose, VA, United States (KFKN) 36-42N 076-54W
May 26, 2022 - 01:35 AM EDT / 2022.05.26 0535 UTC
Wind: Calm:0
Visibility: 5 mile(s):0
Sky conditions: overcast
Weather: mist
Temperature: 59.0 F (15.0 C)
Dew Point: 58.3 F (14.6 C)
Relative Humidity: 97%
Pressure (altimeter): 30.25 in. Hg (1024 hPa)
ob: KFKN 260535Z AUTO 00000KT 5SM BR OVC004 15/15 A3025 RMK AO2 T01500146
cycle: 5

Station Type Date Time Source
KFKN TAF UTC NOAA

Error!

Example: see airport list